Ocean Seagull — 3FSU4 — position and weather

sailwx.info

Track history (hours):
 
Tides and Currents Weather Stations Pressure Air Temp Water Temp Dewpoint Dewpoint Depression Visibility Wind Speed Wind Dir Waves Ship Positions

Ocean Seagull

Last reported at 2018-Aug-14 04:30 UTC. Time now 2018-Aug-20 16:47 UTC.
Position N 32°21' W 126°54'.

Length 119 m; draft 5.4 m.

Type: Ship. MMSI: 351954000.

Date/timePositionNaut miles runAvg speedWind from/ knotsBaromVisibWave heightAir tempDewpointWater temp
2018-Aug-14 04:30N 32°21' W 126°54'712.5
2018-Aug-14 03:55N 32°19' W 126°46'711.5
2018-Aug-14 03:20N 32°18' W 126°38'14811.3
2018-Aug-13 14:15N 31°03' W 124°08'1011.8
2018-Aug-13 13:24N 30°58' W 123°58'2611.9
2018-Aug-13 11:13N 30°44' W 123°33'212.0
2018-Aug-13 11:01N 30°43' W 123°30'712.0
2018-Aug-13 10:28N 30°39' W 123°24'611.9
2018-Aug-13 09:58N 30°36' W 123°18'611.9
2018-Aug-13 09:30N 30°33' W 123°12'  
Track history (hours):
 
Tides and Currents Weather Stations Pressure Air Temp Water Temp Dewpoint Dewpoint Depression Visibility Wind Speed Wind Dir Waves Ship Positions

Ocean Seagull

Last reported at 2018-Aug-14 04:30 UTC. Time now 2018-Aug-20 16:47 UTC.
Position N 32°21' W 126°54'.

Length 119 m; draft 5.4 m.

Type: Ship. MMSI: 351954000.

Date/timePositionNaut miles runAvg speedWind from/ knotsBaromVisibWave heightAir tempDewpointWater temp
2018-Aug-14 04:30N 32°21' W 126°54'712.5
2018-Aug-14 03:55N 32°19' W 126°46'711.5
2018-Aug-14 03:20N 32°18' W 126°38'14811.3
2018-Aug-13 14:15N 31°03' W 124°08'1011.8
2018-Aug-13 13:24N 30°58' W 123°58'2611.9
2018-Aug-13 11:13N 30°44' W 123°33'212.0
2018-Aug-13 11:01N 30°43' W 123°30'712.0
2018-Aug-13 10:28N 30°39' W 123°24'611.9
2018-Aug-13 09:58N 30°36' W 123°18'611.9
2018-Aug-13 09:30N 30°33' W 123°12'  

Dump ship's entire track history